createdAt,value
2017-03-02T00:00:46.369Z,81.92
2017-03-02T00:01:58.333Z,82.49
2017-03-02T00:03:07.945Z,82.58
2017-03-02T00:04:19.841Z,82.29
2017-03-02T00:05:31.719Z,82.1
2017-03-02T00:06:41.736Z,82.49
2017-03-02T00:07:53.406Z,82.49
2017-03-02T00:09:05.075Z,82.1
2017-03-02T00:10:15.041Z,82.2
2017-03-02T00:11:29.230Z,82.2
2017-03-02T00:12:39.553Z,82.49
2017-03-02T00:13:49.475Z,82.58
2017-03-02T00:15:00.523Z,82.2
2017-03-02T00:16:12.988Z,81.73
2017-03-02T00:17:22.743Z,81.92
2017-03-02T00:18:34.285Z,82.1
2017-03-02T00:19:46.240Z,81.63
2017-03-02T00:20:55.647Z,82.2
2017-03-02T00:22:07.679Z,82.2
2017-03-02T00:23:18.967Z,81.82
2017-03-02T00:24:29.016Z,82.1
2017-03-02T00:25:41.173Z,82.1
2017-03-02T00:26:52.871Z,82.01
2017-03-02T00:28:02.775Z,81.73
2017-03-02T00:29:15.007Z,81.25
2017-03-02T00:30:26.894Z,81.44
2017-03-02T00:31:36.246Z,81.16
2017-03-02T00:32:48.264Z,81.44
2017-03-02T00:34:00.254Z,81.16
2017-03-02T00:35:10.032Z,81.82
2017-03-02T00:36:21.820Z,81.16
2017-03-02T00:37:33.861Z,81.35
2017-03-02T00:38:43.695Z,81.35
2017-03-02T00:39:55.692Z,81.06
2017-03-02T00:41:07.908Z,80.77
2017-03-02T00:42:17.341Z,80.68
2017-03-02T00:43:28.859Z,81.16
2017-03-02T00:44:39.110Z,81.06
2017-03-02T00:45:48.799Z,80.77
2017-03-02T00:47:00.009Z,80.96
2017-03-02T00:48:09.244Z,80.96
2017-03-02T00:49:21.462Z,81.54
2017-03-02T00:50:33.396Z,81.54
2017-03-02T00:51:42.883Z,81.16
2017-03-02T00:52:55.092Z,81.63
2017-03-02T00:54:07.015Z,81.63
2017-03-02T00:55:16.386Z,81.44
2017-03-02T00:56:28.441Z,81.35
2017-03-02T00:57:39.983Z,81.06
2017-03-02T00:58:50.114Z,80.87
2017-03-02T01:00:02.301Z,80.68
2017-03-02T01:01:13.873Z,81.16
2017-03-02T01:02:23.896Z,81.35
2017-03-02T01:03:35.880Z,81.25
2017-03-02T01:04:47.752Z,81.35
2017-03-02T01:05:56.985Z,81.16
2017-03-02T01:07:09.311Z,81.16
2017-03-02T01:08:21.004Z,81.35
2017-03-02T01:09:30.999Z,81.06
2017-03-02T01:10:42.747Z,80.68
2017-03-02T01:11:54.867Z,81.06
2017-03-02T01:13:04.172Z,80.68
2017-03-02T01:14:16.053Z,80.77
2017-03-02T01:15:26.348Z,80.49
2017-03-02T01:16:35.741Z,81.06
2017-03-02T01:17:47.036Z,80.96
2017-03-02T01:18:56.539Z,80.49
2017-03-02T01:20:08.533Z,80.02
2017-03-02T01:21:20.323Z,80.11
2017-03-02T01:22:30.710Z,80.02
2017-03-02T01:23:42.175Z,80.02
2017-03-02T01:24:53.887Z,80.49
2017-03-02T01:26:04.047Z,80.87
2017-03-02T01:27:15.573Z,81.06
2017-03-02T01:28:27.257Z,80.87
2017-03-02T01:29:37.044Z,81.06
2017-03-02T01:30:49.093Z,80.77
2017-03-02T01:32:00.869Z,81.44
2017-03-02T01:33:10.636Z,80.96
2017-03-02T01:34:22.795Z,79.73
2017-03-02T01:35:34.620Z,80.49
2017-03-02T01:36:44.160Z,80.77
2017-03-02T01:37:56.152Z,80.77
2017-03-02T01:39:06.301Z,79.44
2017-03-02T01:40:15.900Z,79.35
2017-03-02T01:41:26.984Z,80.11
2017-03-02T01:42:36.509Z,80.68
2017-03-02T01:43:48.977Z,80.49
2017-03-02T01:45:00.611Z,80.77
2017-03-02T01:46:10.459Z,80.49
2017-03-02T01:47:22.087Z,80.68
2017-03-02T01:48:34.305Z,80.96
2017-03-02T01:49:43.758Z,80.96
2017-03-02T01:50:55.683Z,80.3
2017-03-02T01:52:07.953Z,79.73
2017-03-02T01:53:17.443Z,80.02
2017-03-02T01:54:29.274Z,80.3
2017-03-02T01:55:41.250Z,80.77
2017-03-02T01:56:51.088Z,80.87
2017-03-02T01:58:02.820Z,80.96
2017-03-02T01:59:14.787Z,80.96
2017-03-02T02:00:24.269Z,80.87
2017-03-02T02:01:36.319Z,81.16
2017-03-02T02:02:48.299Z,81.25
2017-03-02T02:03:57.994Z,81.16
2017-03-02T02:05:09.598Z,80.68
2017-03-02T02:06:18.583Z,81.16
2017-03-02T02:07:28.690Z,80.96
2017-03-02T02:08:38.943Z,80.87
2017-03-02T02:09:48.394Z,80.87
2017-03-02T02:10:59.185Z,80.4
2017-03-02T02:12:08.987Z,80.02
2017-03-02T02:13:20.973Z,80.11
2017-03-02T02:14:32.449Z,80.11
2017-03-02T02:15:42.751Z,80.49
2017-03-02T02:16:54.743Z,80.21
2017-03-02T02:18:06.523Z,80.11
2017-03-02T02:19:16.173Z,80.49
2017-03-02T02:20:28.119Z,80.4
2017-03-02T02:21:39.101Z,80.49
2017-03-02T02:22:48.094Z,80.77
2017-03-02T02:23:57.475Z,80.4
2017-03-02T02:25:06.553Z,80.44
2017-03-02T02:26:15.540Z,80.11
2017-03-02T02:27:24.851Z,80.58
2017-03-02T02:28:33.936Z,80.49
2017-03-02T02:29:43.327Z,81.25
2017-03-02T02:30:52.321Z,80.87
2017-03-02T02:32:01.317Z,80.91
2017-03-02T02:33:10.696Z,80.82
2017-03-02T02:34:19.687Z,81.25
2017-03-02T02:35:28.747Z,81.35
2017-03-02T02:36:37.735Z,82.24
2017-03-02T02:37:46.803Z,81.96
2017-03-02T02:38:56.050Z,82.2
2017-03-02T02:40:05.435Z,82.71
2017-03-02T02:41:14.427Z,82.05
2017-03-02T02:42:23.405Z,82.1
2017-03-02T02:43:32.403Z,82.2
2017-03-02T02:44:41.628Z,82.2
2017-03-02T02:45:50.616Z,81.35
2017-03-02T02:46:59.645Z,81.92
2017-03-02T02:48:08.717Z,82.01
2017-03-02T02:49:17.690Z,82.49
2017-03-02T02:50:26.937Z,82.39
2017-03-02T02:51:35.921Z,82.1
2017-03-02T02:52:44.892Z,80.96
2017-03-02T02:53:53.883Z,80.96
2017-03-02T02:55:03.279Z,81.25
2017-03-02T02:56:12.531Z,81.54
2017-03-02T02:57:21.513Z,82.1
2017-03-02T02:58:30.503Z,81.25
2017-03-02T02:59:39.492Z,82.1
2017-03-02T03:00:48.477Z,81.82
2017-03-02T03:01:57.764Z,82.29
2017-03-02T03:03:06.755Z,83.06
2017-03-02T03:04:15.832Z,83.34
2017-03-02T03:05:24.821Z,83.15
2017-03-02T03:06:33.822Z,83.25
2017-03-02T03:07:43.075Z,82.2
2017-03-02T03:08:52.056Z,83.25
2017-03-02T03:10:01.472Z,84.2
2017-03-02T03:11:10.466Z,83.82
2017-03-02T03:12:19.472Z,84.29
2017-03-02T03:13:28.709Z,84.01
2017-03-02T03:14:38.093Z,85.05
2017-03-02T03:15:47.109Z,85.43
2017-03-02T03:16:56.194Z,86
2017-03-02T03:18:05.196Z,87.34
2017-03-02T03:19:14.494Z,87.52
2017-03-02T03:20:23.483Z,87.14
2017-03-02T03:21:32.472Z,87.71
2017-03-02T03:22:41.460Z,88.67
2017-03-02T03:23:50.461Z,89.23
2017-03-02T03:24:59.739Z,90.28
2017-03-02T03:26:08.725Z,90.56
2017-03-02T03:27:17.742Z,91.13
2017-03-02T03:28:26.737Z,91.13
2017-03-02T03:29:35.735Z,90.47
2017-03-02T03:30:45.124Z,90.66
2017-03-02T03:31:54.122Z,91.23
2017-03-02T03:33:03.098Z,91.61
2017-03-02T03:34:12.082Z,91.71
2017-03-02T03:35:21.083Z,91.71
2017-03-02T03:36:30.334Z,91.33
2017-03-02T03:37:39.326Z,91.42
2017-03-02T03:38:48.707Z,91.13
2017-03-02T03:39:59.292Z,91.23
2017-03-02T03:41:09.164Z,90.66
2017-03-02T03:42:18.559Z,91.13
2017-03-02T03:43:27.544Z,91.33
2017-03-02T03:44:36.538Z,91.8
2017-03-02T03:45:45.536Z,92.08
2017-03-02T03:46:54.560Z,92.56
2017-03-02T03:48:03.837Z,93.04
2017-03-02T03:49:12.812Z,93.13
2017-03-02T03:50:21.806Z,92.66
2017-03-02T03:51:30.873Z,93.23
2017-03-02T03:52:39.878Z,92.94
2017-03-02T03:53:49.124Z,93.79
2017-03-02T03:54:58.129Z,94.27
2017-03-02T03:56:07.117Z,94.27
2017-03-02T03:57:16.127Z,94.7
2017-03-02T03:58:25.132Z,94.74
2017-03-02T03:59:34.378Z,95.41
2017-03-02T04:00:43.474Z,94.98
2017-03-02T04:01:52.474Z,95.08
2017-03-02T04:03:01.874Z,94.98
2017-03-02T04:04:10.868Z,94.7
2017-03-02T04:05:20.169Z,94.98
2017-03-02T04:06:29.168Z,96.03
2017-03-02T04:07:38.292Z,95.84
2017-03-02T04:08:47.286Z,96.03
2017-03-02T04:09:56.267Z,95.36
2017-03-02T04:11:05.565Z,95.55
2017-03-02T04:12:14.544Z,95.84
2017-03-02T04:13:23.524Z,95.75
2017-03-02T04:14:32.513Z,95.84
2017-03-02T04:15:41.664Z,96.41
2017-03-02T04:16:51.096Z,96.22
2017-03-02T04:18:00.071Z,96.03
2017-03-02T04:19:09.046Z,96.98
2017-03-02T04:20:18.475Z,96.31
2017-03-02T04:21:27.489Z,96.79
2017-03-02T04:22:36.820Z,96.79
2017-03-02T04:23:46.229Z,97.27
2017-03-02T04:24:55.203Z,97.74
2017-03-02T04:26:04.208Z,97.78
2017-03-02T04:27:13.187Z,97.45
2017-03-02T04:28:22.484Z,97.5
2017-03-02T04:29:31.466Z,97.27
2017-03-02T04:30:40.457Z,97.17
2017-03-02T04:31:49.444Z,97.12
2017-03-02T04:32:58.458Z,96.74
2017-03-02T04:34:07.747Z,97.17
2017-03-02T04:35:16.728Z,96.79
2017-03-02T04:36:25.817Z,97.27
2017-03-02T04:37:34.799Z,96.88
2017-03-02T04:38:43.786Z,96.79
2017-03-02T04:39:53.068Z,96.88
2017-03-02T04:41:02.469Z,97.36
2017-03-02T04:42:11.448Z,97.07
2017-03-02T04:43:20.434Z,97.17
2017-03-02T04:44:29.505Z,96.98
2017-03-02T04:45:38.891Z,96.6
2017-03-02T04:46:47.862Z,97.17
2017-03-02T04:47:56.852Z,97.17
2017-03-02T04:49:06.690Z,97.27
2017-03-02T04:50:15.678Z,97.27
2017-03-02T04:51:25.050Z,96.98
2017-03-02T04:52:34.028Z,97.27
2017-03-02T04:53:43.408Z,97.27
2017-03-02T04:54:52.490Z,97.17
2017-03-02T04:56:01.885Z,97.45
2017-03-02T04:57:11.594Z,97.64
2017-03-02T04:58:20.581Z,97.83
2017-03-02T04:59:29.565Z,97.83
2017-03-02T05:00:38.724Z,97.83
2017-03-02T05:01:47.729Z,97.64
2017-03-02T05:02:57.573Z,97.55
2017-03-02T05:04:06.562Z,96.98
2017-03-02T05:05:15.555Z,97.64
2017-03-02T05:06:24.544Z,97.64
2017-03-02T05:07:33.539Z,97.64
2017-03-02T05:08:42.776Z,97.74
2017-03-02T05:09:51.765Z,97.55
2017-03-02T05:11:00.769Z,97.45
2017-03-02T05:12:09.749Z,98.12
2017-03-02T05:13:18.764Z,98.02
2017-03-02T05:14:27.754Z,98.12
2017-03-02T05:15:36.753Z,97.45
2017-03-02T05:16:45.863Z,97.64
2017-03-02T05:17:54.845Z,97.74
2017-03-02T05:19:04.084Z,97.78
2017-03-02T05:20:13.077Z,98.07
2017-03-02T05:21:22.067Z,97.45
2017-03-02T05:22:31.060Z,97.88
2017-03-02T05:23:40.445Z,97.45
2017-03-02T05:24:49.680Z,97.74
2017-03-02T05:25:58.664Z,97.92
2017-03-02T05:27:07.641Z,98.02
2017-03-02T05:28:16.624Z,97.88
2017-03-02T05:29:25.600Z,97.6
2017-03-02T05:30:34.901Z,97.83
2017-03-02T05:31:43.887Z,97.64
2017-03-02T05:32:52.954Z,97.83
2017-03-02T05:34:01.943Z,97.83
2017-03-02T05:35:10.925Z,98.21
2017-03-02T05:36:20.267Z,97.74
2017-03-02T05:37:29.258Z,98.4
2017-03-02T05:38:38.251Z,98.64
2017-03-02T05:39:47.224Z,98.59
2017-03-02T05:40:56.197Z,98.59
2017-03-02T05:42:05.457Z,98.4
2017-03-02T05:43:14.450Z,98.5
2017-03-02T05:44:23.453Z,98.5
2017-03-02T05:45:32.436Z,98.5
2017-03-02T05:46:41.416Z,98.55
2017-03-02T05:47:50.756Z,98.26
2017-03-02T05:48:59.842Z,98.26
2017-03-02T05:50:08.832Z,98.45
2017-03-02T05:51:17.801Z,99.11
2017-03-02T05:52:26.902Z,99.92
2017-03-02T05:53:36.135Z,99.99
2017-03-02T05:54:45.141Z,99.97
2017-03-02T05:55:54.204Z,99.99
2017-03-02T05:57:03.174Z,99.99
2017-03-02T05:58:12.266Z,99.99
2017-03-02T05:59:21.503Z,99.99
2017-03-02T06:00:30.569Z,99.99
2017-03-02T06:01:39.568Z,99.99
2017-03-02T06:02:48.549Z,99.97
2017-03-02T06:03:57.527Z,99.88
2017-03-02T06:05:06.823Z,99.88
2017-03-02T06:06:15.828Z,99.88
2017-03-02T06:07:24.821Z,99.97
2017-03-02T06:08:33.809Z,99.97
2017-03-02T06:09:42.782Z,99.78
2017-03-02T06:10:52.444Z,99.99
2017-03-02T06:12:01.946Z,99.99
2017-03-02T06:13:10.920Z,99.99
2017-03-02T06:14:19.928Z,99.99
2017-03-02T06:15:28.985Z,99.99
2017-03-02T06:16:38.241Z,99.99
2017-03-02T06:17:47.233Z,99.99
2017-03-02T06:18:56.624Z,99.99
2017-03-02T06:20:05.633Z,99.99
2017-03-02T06:21:14.611Z,99.99
2017-03-02T06:22:23.842Z,99.99
2017-03-02T06:23:33.315Z,99.99
2017-03-02T06:24:42.289Z,99.99
2017-03-02T06:25:51.293Z,99.99
2017-03-02T06:27:00.366Z,99.99
2017-03-02T06:28:09.658Z,99.99
2017-03-02T06:29:18.639Z,99.99
2017-03-02T06:30:27.636Z,99.99
2017-03-02T06:31:36.657Z,99.99
2017-03-02T06:32:45.651Z,99.99
2017-03-02T06:33:55.015Z,99.99
2017-03-02T06:35:04.099Z,99.99
2017-03-02T06:36:13.087Z,99.99
2017-03-02T06:37:22.075Z,99.99
2017-03-02T06:38:31.059Z,99.99
2017-03-02T06:39:40.689Z,99.99
2017-03-02T06:40:49.670Z,99.99
2017-03-02T06:41:58.649Z,99.99
2017-03-02T06:43:08.037Z,99.99
2017-03-02T06:44:17.024Z,99.99
2017-03-02T06:45:26.314Z,99.99
2017-03-02T06:46:35.329Z,99.99
2017-03-02T06:47:44.316Z,99.99
2017-03-02T06:48:53.392Z,99.99
2017-03-02T06:50:02.380Z,99.99
2017-03-02T06:51:12.166Z,99.99
2017-03-02T06:52:21.153Z,99.99
2017-03-02T06:53:30.147Z,99.99
2017-03-02T06:54:39.129Z,99.99
2017-03-02T06:55:48.210Z,99.99
2017-03-02T06:56:57.441Z,99.99
2017-03-02T06:58:07.241Z,99.99
2017-03-02T06:59:16.248Z,99.99
2017-03-02T07:00:25.220Z,99.99
2017-03-02T07:01:34.218Z,99.99
2017-03-02T07:02:43.922Z,99.99
2017-03-02T07:03:52.918Z,99.99
2017-03-02T07:05:01.997Z,99.99
2017-03-02T07:06:10.981Z,99.99
2017-03-02T07:07:19.964Z,99.99
2017-03-02T07:08:29.213Z,99.99
2017-03-02T07:09:38.194Z,99.99
2017-03-02T07:10:47.175Z,99.99
2017-03-02T07:11:56.358Z,99.99
2017-03-02T07:13:05.343Z,99.99
2017-03-02T07:14:14.671Z,99.99
2017-03-02T07:15:23.764Z,99.99
2017-03-02T07:16:32.750Z,99.99
2017-03-02T07:17:41.780Z,99.99
2017-03-02T07:18:50.757Z,99.99
2017-03-02T07:20:00.020Z,99.99
2017-03-02T07:21:09.058Z,99.99
2017-03-02T07:22:18.044Z,99.99
2017-03-02T07:23:27.023Z,99.99
2017-03-02T07:24:36.027Z,99.99
2017-03-02T07:25:45.260Z,99.99
2017-03-02T07:26:54.244Z,99.99
2017-03-02T07:28:03.250Z,99.99
2017-03-02T07:29:12.229Z,99.99
2017-03-02T07:30:21.217Z,99.99
2017-03-02T07:31:30.443Z,99.99
2017-03-02T07:32:39.449Z,99.99
2017-03-02T07:33:48.463Z,99.99
2017-03-02T07:34:57.450Z,99.99
2017-03-02T07:36:06.483Z,99.99
2017-03-02T07:37:16.201Z,99.99
2017-03-02T07:38:25.195Z,99.99
2017-03-02T07:39:34.304Z,99.99
2017-03-02T07:40:43.299Z,99.99
2017-03-02T07:41:52.288Z,99.99
2017-03-02T07:43:01.520Z,99.99
2017-03-02T07:44:10.510Z,99.99
2017-03-02T07:45:19.578Z,99.99
2017-03-02T07:46:28.560Z,99.99
2017-03-02T07:47:38.041Z,99.99
2017-03-02T07:48:47.320Z,99.99
2017-03-02T07:49:56.464Z,99.99
2017-03-02T07:51:06.292Z,99.99
2017-03-02T07:52:15.300Z,99.99
2017-03-02T07:53:24.278Z,99.99
2017-03-02T07:54:33.524Z,99.99
2017-03-02T07:55:42.531Z,99.98
2017-03-02T07:56:51.603Z,99.31
2017-03-02T07:58:00.654Z,99.98
2017-03-02T07:59:09.711Z,99.99
2017-03-02T08:00:18.959Z,99.99
2017-03-02T08:01:28.318Z,99.99
2017-03-02T08:02:37.320Z,99.99
2017-03-02T08:03:46.304Z,99.99
2017-03-02T08:04:55.311Z,99.99
2017-03-02T08:06:04.547Z,99.99
2017-03-02T08:07:13.526Z,99.31
2017-03-02T08:08:22.578Z,99.6
2017-03-02T08:09:31.570Z,99.99
2017-03-02T08:10:40.927Z,99.5
2017-03-02T08:11:50.416Z,99.88
2017-03-02T08:13:00.081Z,99.41
2017-03-02T08:14:09.798Z,99.6
2017-03-02T08:15:20.064Z,98.69
2017-03-02T08:16:30.006Z,99.16
2017-03-02T08:17:39.260Z,99.41
2017-03-02T08:18:48.661Z,99.55
2017-03-02T08:19:57.648Z,99.45
2017-03-02T08:21:06.663Z,99.36
2017-03-02T08:22:15.893Z,99.55
2017-03-02T08:23:25.121Z,98.88
2017-03-02T08:24:34.141Z,98.69
2017-03-02T08:25:43.926Z,98.31
2017-03-02T08:26:52.919Z,98.97
2017-03-02T08:28:01.904Z,98.97
2017-03-02T08:29:11.156Z,99.55
2017-03-02T08:30:20.133Z,99.55
2017-03-02T08:31:29.532Z,99.21
2017-03-02T08:32:38.633Z,97.41
2017-03-02T08:33:48.229Z,97.6
2017-03-02T08:34:57.762Z,98.74
2017-03-02T08:36:07.188Z,98.55
2017-03-02T08:37:16.170Z,98.59
2017-03-02T08:38:25.163Z,99.35
2017-03-02T08:39:34.252Z,99.44
2017-03-02T08:40:43.486Z,99.83
2017-03-02T08:41:52.476Z,99.99
2017-03-02T08:43:01.878Z,99.99
2017-03-02T08:44:11.365Z,99.99
2017-03-02T08:45:20.349Z,99.99
2017-03-02T08:46:29.588Z,99.99
2017-03-02T08:47:38.572Z,99.99
2017-03-02T08:48:47.573Z,99.99
2017-03-02T08:49:56.553Z,99.99
2017-03-02T08:51:05.529Z,99.99
2017-03-02T08:52:14.784Z,99.99
2017-03-02T08:53:23.779Z,99.99
2017-03-02T08:54:32.757Z,99.99
2017-03-02T08:55:41.748Z,99.99
2017-03-02T08:56:51.577Z,99.99
2017-03-02T08:58:00.902Z,99.99
2017-03-02T08:59:09.912Z,99.99
2017-03-02T09:00:19.108Z,99.99
2017-03-02T09:01:28.145Z,99.99
2017-03-02T09:02:37.684Z,99.99
2017-03-02T09:03:46.944Z,99.99
2017-03-02T09:04:55.956Z,99.99
2017-03-02T09:06:04.934Z,99.99
2017-03-02T09:07:13.941Z,99.99
2017-03-02T09:08:23.023Z,99.99
2017-03-02T09:09:32.340Z,99.99
2017-03-02T09:10:41.436Z,99.99
2017-03-02T09:11:50.406Z,99.99
2017-03-02T09:12:59.393Z,99.99
2017-03-02T09:14:08.387Z,99.99
2017-03-02T09:15:17.625Z,99.99
2017-03-02T09:16:26.602Z,99.99
2017-03-02T09:17:35.576Z,99.99
2017-03-02T09:18:44.570Z,99.99
2017-03-02T09:19:53.567Z,99.99
2017-03-02T09:21:02.818Z,99.99
2017-03-02T09:22:11.797Z,99.99
2017-03-02T09:23:20.767Z,99.99
2017-03-02T09:24:29.760Z,99.99
2017-03-02T09:25:39.163Z,99.99
2017-03-02T09:26:48.395Z,99.99
2017-03-02T09:27:57.410Z,99.99
2017-03-02T09:29:06.398Z,99.99
2017-03-02T09:30:15.370Z,99.99
2017-03-02T09:31:24.346Z,99.99
2017-03-02T09:32:33.582Z,99.99
2017-03-02T09:33:42.563Z,99.99
2017-03-02T09:34:51.559Z,99.99
2017-03-02T09:36:00.537Z,99.99
2017-03-02T09:37:09.537Z,99.99
2017-03-02T09:38:18.775Z,99.99
2017-03-02T09:39:27.754Z,99.99
2017-03-02T09:40:36.726Z,99.99
2017-03-02T09:41:45.723Z,99.99
2017-03-02T09:42:54.703Z,99.99
2017-03-02T09:44:04.362Z,99.99
2017-03-02T09:45:13.933Z,99.99
2017-03-02T09:46:22.925Z,99.99
2017-03-02T09:47:31.928Z,99.99
2017-03-02T09:48:41.023Z,99.99
2017-03-02T09:49:50.276Z,99.99
2017-03-02T09:50:59.264Z,99.99
2017-03-02T09:52:08.260Z,99.99
2017-03-02T09:53:17.248Z,99.99
2017-03-02T09:54:26.809Z,99.99
2017-03-02T09:55:36.053Z,99.99
2017-03-02T09:56:45.046Z,99.99
2017-03-02T09:57:54.029Z,99.99
2017-03-02T09:59:03.012Z,99.99
2017-03-02T10:00:12.072Z,99.99
2017-03-02T10:01:21.306Z,99.99
2017-03-02T10:02:30.303Z,99.99
2017-03-02T10:03:39.290Z,99.99
2017-03-02T10:04:48.278Z,99.99
2017-03-02T10:05:57.271Z,99.99
2017-03-02T10:07:06.612Z,99.99
2017-03-02T10:08:15.598Z,99.99
2017-03-02T10:09:24.589Z,99.99
2017-03-02T10:10:33.595Z,99.99
2017-03-02T10:11:42.574Z,99.99
2017-03-02T10:12:51.818Z,99.99
2017-03-02T10:14:00.815Z,99.99
2017-03-02T10:15:09.803Z,99.99
2017-03-02T10:16:18.791Z,99.99
2017-03-02T10:17:27.800Z,99.99
2017-03-02T10:18:37.430Z,99.99
2017-03-02T10:19:46.414Z,99.99
2017-03-02T10:20:55.432Z,99.99
2017-03-02T10:22:04.423Z,99.99
2017-03-02T10:23:13.412Z,99.99
2017-03-02T10:24:22.735Z,99.99
2017-03-02T10:25:31.732Z,99.99
2017-03-02T10:26:40.734Z,99.99
2017-03-02T10:27:49.744Z,99.99
2017-03-02T10:28:58.731Z,99.99
2017-03-02T10:30:08.056Z,99.99
2017-03-02T10:31:17.069Z,99.99
2017-03-02T10:32:26.052Z,99.99
2017-03-02T10:33:35.026Z,99.99
2017-03-02T10:34:44.031Z,99.99
2017-03-02T10:35:53.350Z,99.99
2017-03-02T10:37:02.328Z,99.99
2017-03-02T10:38:11.317Z,99.99
2017-03-02T10:39:20.713Z,99.99
2017-03-02T10:40:30.129Z,99.99
2017-03-02T10:41:39.816Z,99.99
2017-03-02T10:42:48.807Z,99.99
2017-03-02T10:43:57.895Z,99.99
2017-03-02T10:45:06.991Z,99.99
2017-03-02T10:46:16.384Z,99.99
2017-03-02T10:47:25.648Z,99.99
2017-03-02T10:48:34.643Z,99.99
2017-03-02T10:49:43.615Z,99.99
2017-03-02T10:50:52.614Z,99.99
2017-03-02T10:52:02.012Z,99.99
2017-03-02T10:53:11.382Z,99.99
2017-03-02T10:54:20.451Z,99.99
2017-03-02T10:55:29.446Z,99.99
2017-03-02T10:56:38.509Z,99.99
2017-03-02T10:57:47.906Z,99.99
2017-03-02T10:58:57.183Z,99.99
2017-03-02T11:00:06.337Z,99.99
2017-03-02T11:01:15.340Z,99.97
2017-03-02T11:02:24.333Z,99.99
2017-03-02T11:03:33.326Z,99.99
2017-03-02T11:04:42.578Z,99.99
2017-03-02T11:05:51.571Z,99.99
2017-03-02T11:07:00.664Z,99.99
2017-03-02T11:08:09.654Z,99.99
2017-03-02T11:09:18.733Z,99.99
2017-03-02T11:10:27.968Z,99.99
2017-03-02T11:11:37.356Z,99.99
2017-03-02T11:12:46.363Z,99.99
2017-03-02T11:13:55.339Z,99.99
2017-03-02T11:15:04.312Z,99.99
2017-03-02T11:16:13.576Z,99.99
2017-03-02T11:17:22.563Z,99.99
2017-03-02T11:18:31.534Z,99.99
2017-03-02T11:19:40.526Z,99.99
2017-03-02T11:20:49.546Z,99.99
2017-03-02T11:21:58.825Z,99.99
2017-03-02T11:23:07.828Z,99.99
2017-03-02T11:24:16.904Z,99.99
2017-03-02T11:25:25.877Z,99.99
2017-03-02T11:26:34.866Z,99.99
2017-03-02T11:27:44.145Z,99.99
2017-03-02T11:28:53.248Z,99.99
2017-03-02T11:30:02.661Z,99.99
2017-03-02T11:31:11.665Z,99.99
2017-03-02T11:32:21.067Z,99.99
2017-03-02T11:33:30.398Z,99.99
2017-03-02T11:34:40.193Z,99.99
2017-03-02T11:35:49.182Z,99.99
2017-03-02T11:36:58.254Z,99.99
2017-03-02T11:38:07.249Z,99.97
2017-03-02T11:39:16.494Z,99.99
2017-03-02T11:40:25.497Z,99.99
2017-03-02T11:41:35.245Z,99.99
2017-03-02T11:42:44.217Z,99.99
2017-03-02T11:43:53.607Z,99.99
2017-03-02T11:45:02.904Z,99.99
2017-03-02T11:46:11.898Z,99.99
2017-03-02T11:47:20.997Z,99.99
2017-03-02T11:48:29.969Z,99.99
2017-03-02T11:49:38.965Z,99.99
2017-03-02T11:50:48.320Z,99.99
2017-03-02T11:51:57.307Z,99.99
2017-03-02T11:53:06.383Z,99.99
2017-03-02T11:54:15.359Z,99.99
2017-03-02T11:55:24.457Z,99.99
2017-03-02T11:56:33.775Z,99.99
2017-03-02T11:57:42.769Z,99.99
2017-03-02T11:58:51.828Z,99.99
2017-03-02T12:00:00.923Z,99.99
2017-03-02T12:01:09.905Z,99.99
2017-03-02T12:02:19.144Z,99.99
2017-03-02T12:03:28.121Z,99.99
2017-03-02T12:04:37.121Z,99.99
2017-03-02T12:05:46.133Z,99.99
2017-03-02T12:06:55.118Z,99.99
2017-03-02T12:08:04.427Z,99.99
2017-03-02T12:09:13.505Z,99.99
2017-03-02T12:10:22.489Z,99.99
2017-03-02T12:11:31.481Z,99.26
2017-03-02T12:12:40.467Z,99.92
2017-03-02T12:13:50.118Z,99.99
2017-03-02T12:14:59.104Z,99.99
2017-03-02T12:16:08.111Z,99.99
2017-03-02T12:17:17.093Z,99.92
2017-03-02T12:18:26.066Z,99.26
2017-03-02T12:19:35.458Z,99.99
2017-03-02T12:20:44.442Z,99.99
2017-03-02T12:21:53.420Z,99.99
2017-03-02T12:23:02.416Z,99.99
2017-03-02T12:24:11.389Z,99.99
2017-03-02T12:25:20.635Z,99.99
2017-03-02T12:26:29.606Z,99.83
2017-03-02T12:27:39.086Z,99.99
2017-03-02T12:28:48.080Z,99.99
2017-03-02T12:29:57.495Z,99.87
2017-03-02T12:31:06.819Z,99.99
2017-03-02T12:32:15.797Z,99.99
2017-03-02T12:33:24.861Z,99.99
2017-03-02T12:34:33.841Z,99.99
2017-03-02T12:35:42.823Z,99.99
2017-03-02T12:36:52.061Z,99.99
2017-03-02T12:38:01.048Z,99.99
2017-03-02T12:39:10.120Z,99.99
2017-03-02T12:40:19.118Z,99.99
2017-03-02T12:41:28.120Z,99.99
2017-03-02T12:42:37.352Z,99.83
2017-03-02T12:43:46.356Z,99.99
2017-03-02T12:44:55.336Z,99.99
2017-03-02T12:46:04.499Z,99.99
2017-03-02T12:47:13.484Z,99.99
2017-03-02T12:48:22.860Z,99.99
2017-03-02T12:49:31.858Z,99.92
2017-03-02T12:50:40.839Z,99.99
2017-03-02T12:51:50.237Z,99.99
2017-03-02T12:52:59.220Z,99.99
2017-03-02T12:54:08.468Z,99.99
2017-03-02T12:55:17.438Z,99.99
2017-03-02T12:56:26.406Z,99.99
2017-03-02T12:57:35.400Z,99.87
2017-03-02T12:58:44.373Z,99.87
2017-03-02T12:59:53.627Z,99.99
2017-03-02T13:01:02.631Z,99.99
2017-03-02T13:02:11.630Z,99.99
2017-03-02T13:03:20.625Z,99.99
2017-03-02T13:04:29.600Z,99.99
2017-03-02T13:05:38.841Z,99.99
2017-03-02T13:06:47.831Z,99.99
2017-03-02T13:07:56.867Z,99.99
2017-03-02T13:09:06.256Z,99.99
2017-03-02T13:10:15.231Z,99.99
2017-03-02T13:11:24.549Z,99.99
2017-03-02T13:12:33.548Z,99.99
2017-03-02T13:13:42.533Z,99.99
2017-03-02T13:14:51.606Z,99.99
2017-03-02T13:16:01.085Z,99.99
2017-03-02T13:17:10.407Z,99.99
2017-03-02T13:18:19.702Z,99.99
2017-03-02T13:19:28.681Z,99.99
2017-03-02T13:20:37.679Z,99.99
2017-03-02T13:21:46.674Z,99.99
2017-03-02T13:22:55.973Z,99.99
2017-03-02T13:24:05.047Z,99.99
2017-03-02T13:25:14.022Z,99.99
2017-03-02T13:26:23.004Z,99.87
2017-03-02T13:27:32.002Z,99.77
2017-03-02T13:28:41.505Z,99.4
2017-03-02T13:29:50.684Z,99.21
2017-03-02T13:30:59.979Z,99.87
2017-03-02T13:32:08.970Z,99.99
2017-03-02T13:33:17.956Z,99.99
2017-03-02T13:34:27.272Z,99.99
2017-03-02T13:35:36.253Z,99.99
2017-03-02T13:36:46.154Z,99.99
2017-03-02T13:37:55.976Z,99.99
2017-03-02T13:39:09.401Z,99.99
2017-03-02T13:40:31.111Z,99.99
2017-03-02T13:41:48.927Z,99.99
2017-03-02T13:43:00.851Z,99.99
2017-03-02T13:44:09.827Z,99.99
2017-03-02T13:45:18.812Z,99.99
2017-03-02T13:46:28.097Z,99.99
2017-03-02T13:47:37.260Z,99.99
2017-03-02T13:48:46.542Z,99.99
2017-03-02T13:49:56.036Z,99.99
2017-03-02T13:51:05.314Z,99.99
2017-03-02T13:52:14.383Z,99.99
2017-03-02T13:53:23.352Z,99.99
2017-03-02T13:54:32.331Z,99.99
2017-03-02T13:55:41.333Z,99.99
2017-03-02T13:56:50.733Z,99.83
2017-03-02T13:57:59.724Z,99.99
2017-03-02T13:59:08.801Z,99.99
2017-03-02T14:00:17.804Z,99.99
2017-03-02T14:01:26.794Z,99.99
2017-03-02T14:02:36.092Z,99.99
2017-03-02T14:03:45.065Z,99.99
2017-03-02T14:04:54.155Z,99.99
2017-03-02T14:06:03.150Z,99.99
2017-03-02T14:07:12.157Z,99.92
2017-03-02T14:08:21.493Z,99.92
2017-03-02T14:09:30.843Z,99.99
2017-03-02T14:10:40.139Z,99.92
2017-03-02T14:11:49.361Z,99.99
2017-03-02T14:12:58.460Z,99.99
2017-03-02T14:14:08.240Z,99.99
2017-03-02T14:15:17.232Z,99.99
2017-03-02T14:16:26.211Z,99.99
2017-03-02T14:17:35.213Z,99.99
2017-03-02T14:18:44.208Z,99.99
2017-03-02T14:19:53.441Z,99.99
2017-03-02T14:21:02.621Z,99.97
2017-03-02T14:22:11.652Z,99.99
2017-03-02T14:23:20.732Z,99.99
2017-03-02T14:24:29.716Z,99.99
2017-03-02T14:25:38.950Z,99.99
2017-03-02T14:26:47.947Z,99.99
2017-03-02T14:27:57.283Z,99.99
2017-03-02T14:29:06.260Z,99.99
2017-03-02T14:30:15.231Z,99.92
2017-03-02T14:31:24.483Z,99.99
2017-03-02T14:32:33.487Z,99.99
2017-03-02T14:33:42.573Z,99.99
2017-03-02T14:34:51.559Z,99.99
2017-03-02T14:36:00.614Z,99.83
2017-03-02T14:37:10.039Z,99.97
2017-03-02T14:38:19.084Z,99.99
2017-03-02T14:39:28.141Z,99.99
2017-03-02T14:40:37.621Z,99.99
2017-03-02T14:41:46.594Z,99.99
2017-03-02T14:42:55.932Z,99.99
2017-03-02T14:44:04.919Z,99.99
2017-03-02T14:45:14.215Z,99.99
2017-03-02T14:46:23.730Z,99.99
2017-03-02T14:47:32.730Z,99.99
2017-03-02T14:48:41.959Z,99.99
2017-03-02T14:49:51.774Z,99.99
2017-03-02T14:51:01.894Z,99.99
2017-03-02T14:52:10.978Z,99.44
2017-03-02T14:53:19.965Z,99.83
2017-03-02T14:54:29.196Z,99.99
2017-03-02T14:55:38.792Z,99.99
2017-03-02T14:56:48.773Z,99.99